createdAt,value
2023-02-17T00:01:15.160Z,3.50
2023-02-17T00:03:43.168Z,3.63
2023-02-17T00:06:12.481Z,3.40
2023-02-17T00:08:41.702Z,3.23
2023-02-17T00:11:09.734Z,3.00
2023-02-17T00:13:37.747Z,3.13
2023-02-17T00:16:09.006Z,2.73
2023-02-17T00:18:37.309Z,2.97
2023-02-17T00:21:16.755Z,2.57
2023-02-17T00:23:47.339Z,2.37
2023-02-17T00:26:15.713Z,2.37
2023-02-17T00:28:43.711Z,2.57
2023-02-17T00:31:15.331Z,2.80
2023-02-17T00:33:43.492Z,2.40
2023-02-17T00:36:14.686Z,2.50
2023-02-17T00:38:42.660Z,2.30
2023-02-17T00:41:11.862Z,2.60
2023-02-17T00:43:39.736Z,2.40
2023-02-17T00:46:08.107Z,2.13
2023-02-17T00:48:36.218Z,2.47
2023-02-17T00:51:04.667Z,2.47
2023-02-17T00:53:32.865Z,2.63
2023-02-17T00:56:00.781Z,2.93
2023-02-17T00:58:30.030Z,2.23
2023-02-17T01:00:58.532Z,2.30
2023-02-17T01:03:27.329Z,1.90
2023-02-17T01:05:55.952Z,2.33
2023-02-17T01:08:25.696Z,2.33
2023-02-17T01:10:54.686Z,2.20
2023-02-17T01:13:22.646Z,2.30
2023-02-17T01:15:53.843Z,2.20
2023-02-17T01:18:24.104Z,2.17
2023-02-17T01:20:52.718Z,2.67
2023-02-17T01:23:21.015Z,2.17
2023-02-17T01:25:50.689Z,2.30
2023-02-17T01:28:21.326Z,2.60
2023-02-17T01:30:50.931Z,2.10
2023-02-17T01:33:18.924Z,2.00
2023-02-17T01:35:46.832Z,2.17
2023-02-17T01:38:14.918Z,2.00
2023-02-17T01:40:48.236Z,2.17
2023-02-17T01:43:18.322Z,2.27
2023-02-17T01:45:50.241Z,2.20
2023-02-17T01:48:22.307Z,2.33
2023-02-17T01:50:54.596Z,2.33
2023-02-17T01:53:29.330Z,2.30
2023-02-17T01:55:57.965Z,1.90
2023-02-17T01:58:27.644Z,2.20
2023-02-17T02:01:00.179Z,2.87
2023-02-17T02:03:31.375Z,2.53
2023-02-17T02:06:00.235Z,2.17
2023-02-17T02:08:31.165Z,2.57
2023-02-17T02:10:59.069Z,2.10
2023-02-17T02:13:27.022Z,2.43
2023-02-17T02:16:02.591Z,2.17
2023-02-17T02:18:45.702Z,2.20
2023-02-17T02:21:57.289Z,2.20
2023-02-17T02:24:34.187Z,2.07
2023-02-17T02:27:52.948Z,2.70
2023-02-17T02:30:57.601Z,2.20
2023-02-17T02:33:34.200Z,2.20
2023-02-17T02:36:10.903Z,2.00
2023-02-17T02:38:43.065Z,2.33
2023-02-17T02:41:15.632Z,2.23
2023-02-17T02:43:44.158Z,2.13
2023-02-17T02:46:12.642Z,1.90
2023-02-17T02:48:42.055Z,2.23
2023-02-17T02:51:22.712Z,2.67
2023-02-17T02:54:05.061Z,2.57
2023-02-17T02:56:43.122Z,2.40
2023-02-17T02:59:25.009Z,2.20
2023-02-17T03:02:01.949Z,2.10
2023-02-17T03:04:36.221Z,2.20
2023-02-17T03:07:09.643Z,2.10
2023-02-17T03:09:38.108Z,1.83
2023-02-17T03:12:07.117Z,2.17
2023-02-17T03:14:39.247Z,2.40
2023-02-17T03:17:07.190Z,2.00
2023-02-17T03:19:36.680Z,2.20
2023-02-17T03:22:11.091Z,2.13
2023-02-17T03:24:38.986Z,2.30
2023-02-17T03:27:07.061Z,2.27
2023-02-17T03:29:35.036Z,2.27
2023-02-17T03:32:03.384Z,2.43
2023-02-17T03:34:31.389Z,2.23
2023-02-17T03:37:00.644Z,2.17
2023-02-17T03:39:28.605Z,1.90
2023-02-17T03:41:56.494Z,2.03
2023-02-17T03:44:24.557Z,2.10
2023-02-17T03:46:52.443Z,2.20
2023-02-17T03:49:20.597Z,2.00
2023-02-17T03:51:48.484Z,2.30
2023-02-17T03:54:17.726Z,2.20
2023-02-17T03:56:45.651Z,1.97
2023-02-17T03:59:13.573Z,2.07
2023-02-17T04:01:41.561Z,2.50
2023-02-17T04:04:09.758Z,2.00
2023-02-17T04:06:38.280Z,2.00
2023-02-17T04:09:06.163Z,1.93
2023-02-17T04:11:35.506Z,2.27
2023-02-17T04:14:03.449Z,2.20
2023-02-17T04:16:31.344Z,2.13
2023-02-17T04:18:59.170Z,2.37
2023-02-17T04:21:27.105Z,2.03
2023-02-17T04:23:55.454Z,2.20
2023-02-17T04:26:23.325Z,2.27
2023-02-17T04:28:52.597Z,2.10
2023-02-17T04:31:20.522Z,2.20
2023-02-17T04:33:48.441Z,2.40
2023-02-17T04:36:16.720Z,2.10
2023-02-17T04:38:44.636Z,2.20
2023-02-17T04:41:13.246Z,2.37
2023-02-17T04:43:41.189Z,2.20
2023-02-17T04:46:11.943Z,2.30
2023-02-17T04:48:40.159Z,2.77
2023-02-17T04:51:08.128Z,1.83
2023-02-17T04:53:35.980Z,2.60
2023-02-17T04:56:04.046Z,2.37
2023-02-17T04:58:32.917Z,2.10
2023-02-17T05:01:01.588Z,2.33
2023-02-17T05:03:30.847Z,2.40
2023-02-17T05:05:58.846Z,1.90
2023-02-17T05:08:26.757Z,2.27
2023-02-17T05:10:54.752Z,2.07
2023-02-17T05:13:22.894Z,2.40
2023-02-17T05:15:50.810Z,4.10
2023-02-17T05:18:18.750Z,2.90
2023-02-17T05:20:48.256Z,2.27
2023-02-17T05:23:16.210Z,2.40
2023-02-17T05:25:44.175Z,2.50
2023-02-17T05:28:12.207Z,2.07
2023-02-17T05:30:40.169Z,2.13
2023-02-17T05:33:08.116Z,2.17
2023-02-17T05:35:36.471Z,2.20
2023-02-17T05:38:05.705Z,2.33
2023-02-17T05:40:33.872Z,2.50
2023-02-17T05:43:01.734Z,2.70
2023-02-17T05:45:29.754Z,4.60
2023-02-17T05:47:57.765Z,2.77
2023-02-17T05:50:25.686Z,2.33
2023-02-17T05:52:53.599Z,2.23
2023-02-17T05:55:23.223Z,2.93
2023-02-17T05:57:51.145Z,2.30
2023-02-17T06:00:19.203Z,2.23
2023-02-17T06:02:47.222Z,5.27
2023-02-17T06:05:15.265Z,5.93
2023-02-17T06:07:43.713Z,4.37
2023-02-17T06:10:12.350Z,3.23
2023-02-17T06:12:41.973Z,3.00
2023-02-17T06:15:10.385Z,2.63
2023-02-17T06:17:38.277Z,2.40
2023-02-17T06:20:07.626Z,2.30
2023-02-17T06:22:35.487Z,2.23
2023-02-17T06:25:03.343Z,1.83
2023-02-17T06:27:31.250Z,2.30
2023-02-17T06:30:00.605Z,2.30
2023-02-17T06:32:28.730Z,2.10
2023-02-17T06:34:56.804Z,1.70
2023-02-17T06:37:24.713Z,2.30
2023-02-17T06:39:52.596Z,2.67
2023-02-17T06:42:20.563Z,2.27
2023-02-17T06:44:48.630Z,2.30
2023-02-17T06:47:18.057Z,3.80
2023-02-17T06:49:46.104Z,2.43
2023-02-17T06:52:14.187Z,2.03
2023-02-17T06:54:42.068Z,2.23
2023-02-17T06:57:09.918Z,2.07
2023-02-17T06:59:37.954Z,2.40
2023-02-17T07:02:06.033Z,1.90
2023-02-17T07:04:35.336Z,2.23
2023-02-17T07:07:03.211Z,2.20
2023-02-17T07:09:31.101Z,2.17
2023-02-17T07:11:59.039Z,2.20
2023-02-17T07:14:27.617Z,2.13
2023-02-17T07:16:55.600Z,2.67
2023-02-17T07:19:23.462Z,2.60
2023-02-17T07:21:52.694Z,2.50
2023-02-17T07:24:20.814Z,2.10
2023-02-17T07:26:49.377Z,2.23
2023-02-17T07:29:17.282Z,2.10
2023-02-17T07:31:45.170Z,2.37
2023-02-17T07:34:13.204Z,2.20
2023-02-17T07:36:41.168Z,2.37
2023-02-17T07:39:10.416Z,2.43
2023-02-17T07:41:38.294Z,2.33
2023-02-17T07:44:06.548Z,1.90
2023-02-17T07:46:34.454Z,2.20
2023-02-17T07:49:02.393Z,2.33
2023-02-17T07:51:30.321Z,2.37
2023-02-17T07:53:58.283Z,2.13
2023-02-17T07:56:29.959Z,2.40
2023-02-17T07:58:57.903Z,2.03
2023-02-17T08:01:26.782Z,2.03
2023-02-17T08:03:55.011Z,1.90
2023-02-17T08:06:25.343Z,2.00
2023-02-17T08:09:12.282Z,2.03
2023-02-17T08:12:00.232Z,2.40
2023-02-17T08:14:30.499Z,1.90
2023-02-17T08:16:58.846Z,2.13
2023-02-17T08:19:39.478Z,1.93
2023-02-17T08:22:14.340Z,2.00
2023-02-17T08:24:42.400Z,1.50
2023-02-17T08:27:11.681Z,1.90
2023-02-17T08:29:39.646Z,1.60
2023-02-17T08:32:07.959Z,2.00
2023-02-17T08:34:35.987Z,1.90
2023-02-17T08:37:05.664Z,1.87
2023-02-17T08:39:34.660Z,1.87
2023-02-17T08:42:03.120Z,1.80
2023-02-17T08:44:34.398Z,1.80
2023-02-17T08:47:02.755Z,1.80
2023-02-17T08:49:32.460Z,1.67
2023-02-17T08:52:00.633Z,1.70
2023-02-17T08:54:29.417Z,1.83
2023-02-17T08:56:58.527Z,1.57
2023-02-17T08:59:26.464Z,1.60
2023-02-17T09:01:55.832Z,1.63
2023-02-17T09:04:23.978Z,1.30
2023-02-17T09:06:55.994Z,1.83
2023-02-17T09:09:27.818Z,1.70
2023-02-17T09:11:56.252Z,1.27
2023-02-17T09:14:25.045Z,1.40
2023-02-17T09:16:53.605Z,1.67
2023-02-17T09:19:23.796Z,1.30
2023-02-17T09:21:51.739Z,1.50
2023-02-17T09:24:20.570Z,1.60
2023-02-17T09:26:48.681Z,1.50
2023-02-17T09:29:16.690Z,1.40
2023-02-17T09:31:46.126Z,1.73
2023-02-17T09:34:15.185Z,1.53
2023-02-17T09:36:44.492Z,1.67
2023-02-17T09:39:14.151Z,1.40
2023-02-17T09:41:45.044Z,1.50
2023-02-17T09:44:21.686Z,1.93
2023-02-17T09:47:01.729Z,1.67
2023-02-17T09:49:36.010Z,1.40
2023-02-17T09:52:12.617Z,1.50
2023-02-17T09:54:50.164Z,1.63
2023-02-17T09:57:21.024Z,1.40
2023-02-17T09:59:53.624Z,1.50
2023-02-17T10:02:28.615Z,1.33
2023-02-17T10:04:58.624Z,1.63
2023-02-17T10:07:31.753Z,1.37
2023-02-17T10:10:06.492Z,1.20
2023-02-17T10:12:39.140Z,1.60
2023-02-17T10:15:13.440Z,1.50
2023-02-17T10:17:47.465Z,1.50
2023-02-17T10:20:19.152Z,1.40
2023-02-17T10:22:53.168Z,1.40
2023-02-17T10:25:32.231Z,1.53
2023-02-17T10:28:09.035Z,1.30
2023-02-17T10:30:46.922Z,1.33
2023-02-17T10:33:22.828Z,1.40
2023-02-17T10:35:53.017Z,1.53
2023-02-17T10:38:40.384Z,1.50
2023-02-17T10:41:13.524Z,1.60
2023-02-17T10:43:44.080Z,1.70
2023-02-17T10:46:15.449Z,1.57
2023-02-17T10:48:48.892Z,1.30
2023-02-17T10:51:19.649Z,1.30
2023-02-17T10:53:52.085Z,1.30
2023-02-17T10:56:26.389Z,1.50
2023-02-17T10:58:59.463Z,1.30
2023-02-17T11:01:28.893Z,1.33
2023-02-17T11:04:05.587Z,1.40
2023-02-17T11:06:37.730Z,1.33
2023-02-17T11:09:17.188Z,1.40
2023-02-17T11:11:53.495Z,1.20
2023-02-17T11:14:27.107Z,1.20
2023-02-17T11:16:59.343Z,1.10
2023-02-17T11:19:29.960Z,1.10
2023-02-17T11:21:59.801Z,1.30
2023-02-17T11:24:31.739Z,1.00
2023-02-17T11:27:02.098Z,1.00
2023-02-17T11:29:31.820Z,1.00
2023-02-17T11:32:01.830Z,1.00
2023-02-17T11:34:32.917Z,1.23
2023-02-17T11:37:03.615Z,1.23
2023-02-17T11:39:39.191Z,1.33
2023-02-17T11:42:16.597Z,1.00
2023-02-17T11:44:44.598Z,1.13
2023-02-17T11:47:26.329Z,1.30
2023-02-17T11:50:39.081Z,1.00
2023-02-17T11:53:21.286Z,1.30
2023-02-17T11:56:03.252Z,1.43
2023-02-17T11:58:43.870Z,1.20
2023-02-17T12:01:39.950Z,1.20
2023-02-17T12:04:32.810Z,1.20
2023-02-17T12:07:37.453Z,1.10
2023-02-17T12:10:13.906Z,1.20
2023-02-17T12:12:58.776Z,1.00
2023-02-17T12:15:35.806Z,1.03
2023-02-17T12:18:15.129Z,1.13
2023-02-17T12:20:51.510Z,0.90
2023-02-17T12:23:42.075Z,1.30
2023-02-17T12:26:18.146Z,1.30
2023-02-17T12:29:12.374Z,1.23
2023-02-17T12:32:01.039Z,1.10
2023-02-17T12:34:33.174Z,1.10
2023-02-17T12:37:02.119Z,0.87
2023-02-17T12:39:34.954Z,1.03
2023-02-17T12:42:11.428Z,1.03
2023-02-17T12:44:43.441Z,0.90
2023-02-17T12:47:16.751Z,1.10
2023-02-17T12:49:50.205Z,1.00
2023-02-17T12:52:23.445Z,0.90
2023-02-17T12:54:56.493Z,1.17
2023-02-17T12:57:28.941Z,1.00
2023-02-17T12:59:59.846Z,1.00
2023-02-17T13:02:27.929Z,1.00
2023-02-17T13:04:59.241Z,1.10
2023-02-17T13:07:52.294Z,1.03
2023-02-17T13:10:28.798Z,0.87
2023-02-17T13:13:01.779Z,1.23
2023-02-17T13:15:34.985Z,0.90
2023-02-17T13:18:05.288Z,0.97
2023-02-17T13:20:55.160Z,1.00
2023-02-17T13:23:34.772Z,1.20
2023-02-17T13:26:16.806Z,1.00
2023-02-17T13:28:45.506Z,1.00
2023-02-17T13:31:18.441Z,0.90
2023-02-17T13:33:52.276Z,1.10
2023-02-17T13:36:23.824Z,1.60
2023-02-17T13:39:01.633Z,1.20
2023-02-17T13:41:33.936Z,1.07
2023-02-17T13:44:19.615Z,1.00
2023-02-17T13:46:49.321Z,1.03
2023-02-17T13:49:24.514Z,1.10
2023-02-17T13:51:52.543Z,1.20
2023-02-17T13:54:22.735Z,1.20
2023-02-17T13:56:56.056Z,1.40
2023-02-17T13:59:27.997Z,1.03
2023-02-17T14:01:57.162Z,1.10
2023-02-17T14:04:27.862Z,1.30
2023-02-17T14:06:58.619Z,1.30
2023-02-17T14:09:28.645Z,1.20
2023-02-17T14:11:57.901Z,1.07
2023-02-17T14:14:29.688Z,1.03
2023-02-17T14:17:04.819Z,0.93
2023-02-17T14:19:43.204Z,1.20
2023-02-17T14:22:26.365Z,1.30
2023-02-17T14:25:05.858Z,1.03
2023-02-17T14:27:43.517Z,1.30
2023-02-17T14:30:15.449Z,1.20
2023-02-17T14:32:44.961Z,1.00
2023-02-17T14:35:24.093Z,1.43
2023-02-17T14:37:52.141Z,1.13
2023-02-17T14:40:23.257Z,1.10
2023-02-17T14:42:51.889Z,1.20
2023-02-17T14:45:20.317Z,1.10
2023-02-17T14:47:49.686Z,1.07
2023-02-17T14:50:18.069Z,1.40
2023-02-17T14:52:47.985Z,1.47
2023-02-17T14:55:23.311Z,1.50
2023-02-17T14:57:51.410Z,1.33
2023-02-17T15:00:20.349Z,1.47
2023-02-17T15:02:51.297Z,1.57
2023-02-17T15:05:19.590Z,1.20
2023-02-17T15:07:47.800Z,1.17
2023-02-17T15:10:20.481Z,1.33
2023-02-17T15:12:48.650Z,1.50
2023-02-17T15:15:18.252Z,1.40
2023-02-17T15:17:46.280Z,1.00
2023-02-17T15:20:17.547Z,1.20
2023-02-17T15:22:45.663Z,1.83
2023-02-17T15:25:15.611Z,1.20
2023-02-17T15:27:44.049Z,1.20
2023-02-17T15:30:13.378Z,1.40
2023-02-17T15:32:41.547Z,1.43
2023-02-17T15:35:21.683Z,1.50
2023-02-17T15:37:49.807Z,1.30
2023-02-17T15:40:19.890Z,1.20
2023-02-17T15:42:51.489Z,1.80
2023-02-17T15:45:20.415Z,1.10
2023-02-17T15:47:49.329Z,1.00
2023-02-17T15:50:23.029Z,1.10
2023-02-17T15:52:51.893Z,1.30
2023-02-17T15:55:20.718Z,1.40
2023-02-17T15:57:51.138Z,1.10
2023-02-17T16:00:24.609Z,1.10
2023-02-17T16:02:53.208Z,1.30
2023-02-17T16:05:23.954Z,1.10
2023-02-17T16:07:51.882Z,1.00
2023-02-17T16:10:22.883Z,1.00
2023-02-17T16:12:52.760Z,1.20
2023-02-17T16:15:23.096Z,1.17
2023-02-17T16:17:52.004Z,1.10
2023-02-17T16:20:23.127Z,1.10
2023-02-17T16:22:51.539Z,1.50
2023-02-17T16:25:21.288Z,1.60
2023-02-17T16:27:51.187Z,1.00
2023-02-17T16:30:21.993Z,0.90
2023-02-17T16:32:50.576Z,0.83
2023-02-17T16:35:20.085Z,0.90
2023-02-17T16:37:55.056Z,1.67
2023-02-17T16:40:25.589Z,1.70
2023-02-17T16:42:53.998Z,1.10
2023-02-17T16:45:23.572Z,1.00
2023-02-17T16:47:52.899Z,0.90
2023-02-17T16:50:25.008Z,0.90
2023-02-17T16:52:56.102Z,0.90
2023-02-17T16:55:25.876Z,0.90
2023-02-17T16:57:53.813Z,1.30
2023-02-17T17:00:23.960Z,1.10
2023-02-17T17:02:52.108Z,1.20
2023-02-17T17:05:20.855Z,1.10
2023-02-17T17:07:49.011Z,1.10
2023-02-17T17:10:20.708Z,0.80
2023-02-17T17:12:48.669Z,1.20
2023-02-17T17:15:17.709Z,1.03
2023-02-17T17:17:49.261Z,0.93
2023-02-17T17:20:18.888Z,1.20
2023-02-17T17:22:47.433Z,1.10
2023-02-17T17:25:15.648Z,0.93
2023-02-17T17:27:45.939Z,1.10
2023-02-17T17:30:18.581Z,1.10
2023-02-17T17:32:47.036Z,1.30
2023-02-17T17:35:15.487Z,4.87
2023-02-17T17:37:43.598Z,1.40
2023-02-17T17:40:17.493Z,1.07
2023-02-17T17:42:46.886Z,0.90
2023-02-17T17:45:16.091Z,1.07
2023-02-17T17:47:44.283Z,1.07
2023-02-17T17:50:17.244Z,1.30
2023-02-17T17:52:45.544Z,0.90
2023-02-17T17:55:13.986Z,0.90
2023-02-17T17:57:42.628Z,1.00
2023-02-17T18:00:14.967Z,1.20
2023-02-17T18:02:43.330Z,1.00
2023-02-17T18:05:12.317Z,1.10
2023-02-17T18:07:41.387Z,1.07
2023-02-17T18:10:10.819Z,0.90
2023-02-17T18:12:39.751Z,1.20
2023-02-17T18:15:08.970Z,1.07
2023-02-17T18:17:41.291Z,1.07
2023-02-17T18:20:11.890Z,1.00
2023-02-17T18:22:40.232Z,1.30
2023-02-17T18:25:08.720Z,2.83
2023-02-17T18:27:41.397Z,1.17
2023-02-17T18:30:10.968Z,1.10
2023-02-17T18:32:40.215Z,1.10
2023-02-17T18:35:08.839Z,0.93
2023-02-17T18:37:36.843Z,1.10
2023-02-17T18:40:06.128Z,1.40
2023-02-17T18:42:34.358Z,0.90
2023-02-17T18:45:02.291Z,1.30
2023-02-17T18:47:31.263Z,1.20
2023-02-17T18:50:00.495Z,1.10
2023-02-17T18:52:28.560Z,1.30
2023-02-17T18:54:56.481Z,1.30
2023-02-17T18:57:24.448Z,1.10
2023-02-17T18:59:52.364Z,1.10
2023-02-17T19:02:21.968Z,1.20
2023-02-17T19:04:52.847Z,1.30
2023-02-17T19:07:22.631Z,1.30
2023-02-17T19:09:52.971Z,1.30
2023-02-17T19:12:20.964Z,1.30
2023-02-17T19:14:53.126Z,1.20
2023-02-17T19:17:21.116Z,1.27
2023-02-17T19:19:49.272Z,1.13
2023-02-17T19:22:17.513Z,1.20
2023-02-17T19:24:51.137Z,1.40
2023-02-17T19:27:19.097Z,1.47
2023-02-17T19:29:47.433Z,1.40
2023-02-17T19:32:15.534Z,1.53
2023-02-17T19:34:43.527Z,1.43
2023-02-17T19:37:11.485Z,1.60
2023-02-17T19:39:39.520Z,6.90
2023-02-17T19:42:09.162Z,4.53
2023-02-17T19:44:37.094Z,2.30
2023-02-17T19:47:05.100Z,1.90
2023-02-17T19:49:34.792Z,1.90
2023-02-17T19:52:02.723Z,2.10
2023-02-17T19:54:30.632Z,1.87
2023-02-17T19:56:58.623Z,1.50
2023-02-17T19:59:28.039Z,1.63
2023-02-17T20:01:56.124Z,1.77
2023-02-17T20:04:23.987Z,1.63
2023-02-17T20:06:52.752Z,1.60
2023-02-17T20:09:23.317Z,1.60
2023-02-17T20:11:53.097Z,1.50
2023-02-17T20:14:22.335Z,1.50
2023-02-17T20:16:53.430Z,1.40
2023-02-17T20:19:21.472Z,2.07
2023-02-17T20:21:49.456Z,1.50
2023-02-17T20:24:18.273Z,1.50
2023-02-17T20:26:48.451Z,1.70
2023-02-17T20:29:16.399Z,1.40
2023-02-17T20:31:44.819Z,1.53
2023-02-17T20:34:26.980Z,1.53
2023-02-17T20:36:54.995Z,1.47
2023-02-17T20:39:23.371Z,1.47
2023-02-17T20:41:51.298Z,3.43
2023-02-17T20:44:19.942Z,1.40
2023-02-17T20:46:49.099Z,1.53
2023-02-17T20:49:17.044Z,2.33
2023-02-17T20:51:46.499Z,1.57
2023-02-17T20:54:14.650Z,1.03
2023-02-17T20:56:46.137Z,0.97
2023-02-17T20:59:14.787Z,1.10
2023-02-17T21:01:43.778Z,1.00
2023-02-17T21:04:14.110Z,0.70
2023-02-17T21:06:43.226Z,1.00
2023-02-17T21:09:15.722Z,1.10
2023-02-17T21:11:43.989Z,1.00
2023-02-17T21:14:12.175Z,1.30
2023-02-17T21:16:40.413Z,1.10
2023-02-17T21:19:08.347Z,0.80
2023-02-17T21:21:36.546Z,0.80
2023-02-17T21:24:04.874Z,0.80
2023-02-17T21:26:35.159Z,0.80
2023-02-17T21:29:03.439Z,0.70
2023-02-17T21:31:31.921Z,0.77
2023-02-17T21:34:00.944Z,0.80
2023-02-17T21:36:29.600Z,0.80
2023-02-17T21:38:57.678Z,1.07
2023-02-17T21:41:27.697Z,6.13
2023-02-17T21:44:14.672Z,1.20
2023-02-17T21:46:43.320Z,0.57
2023-02-17T21:49:12.454Z,0.60
2023-02-17T21:51:41.409Z,0.60
2023-02-17T21:54:10.450Z,0.60
2023-02-17T21:56:38.665Z,0.57
2023-02-17T21:59:08.940Z,0.70
2023-02-17T22:01:37.007Z,0.70
2023-02-17T22:04:05.558Z,0.67
2023-02-17T22:06:36.081Z,0.70
2023-02-17T22:09:05.954Z,0.60
2023-02-17T22:11:36.151Z,0.60
2023-02-17T22:14:06.411Z,0.60
2023-02-17T22:16:37.349Z,2.30
2023-02-17T22:19:07.295Z,0.80
2023-02-17T22:21:35.447Z,0.90
2023-02-17T22:24:03.940Z,0.90
2023-02-17T22:26:32.510Z,0.80
2023-02-17T22:29:00.436Z,0.80
2023-02-17T22:31:31.323Z,0.73
2023-02-17T22:34:03.313Z,0.80
2023-02-17T22:36:34.507Z,0.70
2023-02-17T22:39:03.189Z,0.70
2023-02-17T22:41:31.304Z,0.70
2023-02-17T22:44:00.637Z,0.70
2023-02-17T22:46:28.697Z,1.00
2023-02-17T22:48:58.020Z,0.60
2023-02-17T22:51:29.205Z,0.80
2023-02-17T22:53:57.369Z,0.80
2023-02-17T22:56:25.455Z,0.80
2023-02-17T22:58:56.441Z,0.80
2023-02-17T23:01:25.316Z,0.70
2023-02-17T23:03:54.950Z,0.83
2023-02-17T23:06:26.244Z,0.80
2023-02-17T23:08:56.326Z,0.70
2023-02-17T23:11:41.943Z,0.63
2023-02-17T23:14:10.660Z,0.70
2023-02-17T23:16:38.855Z,0.80
2023-02-17T23:19:08.177Z,0.97
2023-02-17T23:21:36.608Z,0.73
2023-02-17T23:24:06.280Z,1.10
2023-02-17T23:26:34.279Z,1.13
2023-02-17T23:29:02.225Z,0.97
2023-02-17T23:31:30.340Z,0.90
2023-02-17T23:33:58.352Z,0.97
2023-02-17T23:36:26.311Z,1.20
2023-02-17T23:38:55.597Z,1.10
2023-02-17T23:41:24.968Z,1.20
2023-02-17T23:43:52.880Z,1.17
2023-02-17T23:46:21.362Z,1.00
2023-02-17T23:48:49.385Z,1.10
2023-02-17T23:51:18.973Z,1.10
2023-02-17T23:53:47.229Z,1.10
2023-02-17T23:56:17.422Z,1.17
2023-02-17T23:58:46.724Z,1.10
